createdAt,value
2023-07-05T00:00:24.620Z,12.43
2023-07-05T00:02:53.151Z,12.45
2023-07-05T00:05:21.644Z,11.40
2023-07-05T00:07:50.178Z,15.82
2023-07-05T00:10:18.751Z,11.55
2023-07-05T00:12:47.423Z,15.15
2023-07-05T00:15:17.259Z,12.95
2023-07-05T00:17:45.626Z,10.93
2023-07-05T00:20:15.270Z,14.38
2023-07-05T00:22:43.606Z,12.73
2023-07-05T00:25:12.289Z,13.75
2023-07-05T00:27:40.621Z,14.55
2023-07-05T00:30:09.852Z,13.35
2023-07-05T00:32:39.699Z,14.27
2023-07-05T00:35:08.921Z,13.05
2023-07-05T00:37:38.592Z,15.70
2023-07-05T00:40:08.296Z,13.00
2023-07-05T00:42:36.622Z,12.18
2023-07-05T00:46:02.265Z,14.25
2023-07-05T00:48:36.882Z,14.48
2023-07-05T00:51:20.572Z,13.73
2023-07-05T00:53:49.836Z,14.20
2023-07-05T00:56:29.194Z,17.70
2023-07-05T00:59:00.027Z,13.15
2023-07-05T01:01:29.334Z,15.88
2023-07-05T01:04:01.532Z,15.68
2023-07-05T01:06:29.910Z,17.27
2023-07-05T01:08:58.944Z,16.27
2023-07-05T01:11:34.548Z,19.25
2023-07-05T01:14:09.728Z,17.85
2023-07-05T01:16:52.647Z,14.50
2023-07-05T01:19:54.261Z,14.68
2023-07-05T01:22:40.496Z,15.02
2023-07-05T01:25:36.950Z,18.30
2023-07-05T01:28:22.226Z,15.50
2023-07-05T01:31:16.087Z,18.15
2023-07-05T01:33:52.336Z,17.67
2023-07-05T01:36:21.910Z,14.02
2023-07-05T01:38:50.228Z,17.00
2023-07-05T01:41:18.565Z,16.40
2023-07-05T01:43:47.910Z,14.50
2023-07-05T01:46:26.239Z,17.83
2023-07-05T01:49:27.301Z,16.60
2023-07-05T01:52:00.739Z,15.85
2023-07-05T01:54:37.738Z,16.33
2023-07-05T01:57:12.594Z,19.60
2023-07-05T01:59:48.005Z,20.10
2023-07-05T02:02:17.735Z,21.77
2023-07-05T02:04:49.012Z,19.00
2023-07-05T02:07:17.419Z,18.77
2023-07-05T02:09:46.187Z,20.20
2023-07-05T02:12:14.628Z,20.25
2023-07-05T02:14:43.028Z,20.85
2023-07-05T02:17:11.375Z,18.73
2023-07-05T02:19:39.739Z,22.02
2023-07-05T02:22:09.662Z,22.27
2023-07-05T02:24:38.023Z,21.27
2023-07-05T02:27:08.126Z,21.80
2023-07-05T02:29:37.334Z,20.15
2023-07-05T02:32:05.941Z,20.50
2023-07-05T02:34:34.285Z,23.73
2023-07-05T02:37:02.618Z,20.95
2023-07-05T02:39:32.430Z,19.48
2023-07-05T02:42:00.841Z,22.17
2023-07-05T02:44:29.217Z,22.70
2023-07-05T02:46:57.590Z,24.63
2023-07-05T02:49:25.961Z,19.05
2023-07-05T02:51:54.644Z,19.20
2023-07-05T02:54:23.430Z,24.20
2023-07-05T02:56:53.201Z,19.58
2023-07-05T02:59:21.577Z,21.48
2023-07-05T03:01:49.997Z,19.48
2023-07-05T03:04:18.420Z,21.60
2023-07-05T03:06:46.755Z,20.58
2023-07-05T03:09:15.495Z,21.48
2023-07-05T03:11:43.808Z,19.15
2023-07-05T03:14:13.544Z,19.65
2023-07-05T03:16:44.848Z,19.05
2023-07-05T03:19:13.674Z,18.17
2023-07-05T03:21:43.873Z,20.70
2023-07-05T03:24:12.263Z,24.80
2023-07-05T03:26:40.752Z,23.02
2023-07-05T03:29:09.050Z,21.60
2023-07-05T03:31:38.969Z,18.85
2023-07-05T03:34:07.994Z,20.00
2023-07-05T03:36:36.405Z,19.17
2023-07-05T03:39:04.847Z,23.95
2023-07-05T03:41:33.173Z,23.40
2023-07-05T03:44:03.121Z,25.00
2023-07-05T03:46:31.580Z,23.92
2023-07-05T03:49:01.411Z,23.13
2023-07-05T03:51:29.814Z,24.40
2023-07-05T03:54:00.044Z,24.85
2023-07-05T03:56:29.745Z,21.73
2023-07-05T03:58:58.630Z,20.95
2023-07-05T04:01:28.410Z,23.13
2023-07-05T04:03:58.380Z,21.95
2023-07-05T04:06:30.123Z,23.83
2023-07-05T04:08:58.755Z,27.92
2023-07-05T04:11:27.162Z,25.88
2023-07-05T04:13:57.370Z,22.13
2023-07-05T04:16:28.020Z,22.83
2023-07-05T04:18:58.029Z,22.50
2023-07-05T04:21:28.853Z,19.38
2023-07-05T04:23:57.273Z,22.33
2023-07-05T04:26:27.127Z,23.50
2023-07-05T04:28:55.968Z,24.05
2023-07-05T04:31:28.620Z,20.95
2023-07-05T04:33:57.725Z,24.30
2023-07-05T04:36:29.069Z,20.95
2023-07-05T04:38:59.407Z,19.98
2023-07-05T04:41:28.055Z,19.33
2023-07-05T04:43:56.466Z,25.67
2023-07-05T04:46:25.455Z,20.58
2023-07-05T04:48:54.296Z,21.48
2023-07-05T04:51:22.708Z,19.63
2023-07-05T04:53:52.439Z,17.50
2023-07-05T04:56:20.828Z,20.33
2023-07-05T04:58:50.769Z,16.27
2023-07-05T05:01:20.733Z,16.77
2023-07-05T05:03:49.257Z,20.80
2023-07-05T05:06:17.610Z,17.65
2023-07-05T05:08:46.092Z,19.38
2023-07-05T05:11:15.941Z,18.00
2023-07-05T05:13:44.320Z,18.42
2023-07-05T05:16:12.811Z,19.20
2023-07-05T05:18:41.530Z,16.95
2023-07-05T05:21:09.861Z,15.93
2023-07-05T05:23:38.665Z,16.73
2023-07-05T05:26:07.270Z,15.77
2023-07-05T05:28:37.540Z,17.95
2023-07-05T05:31:07.732Z,17.17
2023-07-05T05:33:36.554Z,16.15
2023-07-05T05:36:05.447Z,14.27
2023-07-05T05:38:33.905Z,17.35
2023-07-05T05:41:03.645Z,16.20
2023-07-05T05:43:32.361Z,16.45
2023-07-05T05:46:02.699Z,15.27
2023-07-05T05:48:31.228Z,15.48
2023-07-05T05:50:59.586Z,12.32
2023-07-05T05:53:27.887Z,9.30
2023-07-05T05:55:58.612Z,10.05
2023-07-05T05:58:27.492Z,11.60
2023-07-05T06:00:56.141Z,9.43
2023-07-05T06:03:26.143Z,10.88
2023-07-05T06:05:56.237Z,11.48
2023-07-05T06:08:24.677Z,9.15
2023-07-05T06:10:57.443Z,9.63
2023-07-05T06:13:26.934Z,10.98
2023-07-05T06:16:12.892Z,9.95
2023-07-05T06:18:44.997Z,11.27
2023-07-05T06:21:13.932Z,9.88
2023-07-05T06:23:42.356Z,11.43
2023-07-05T06:26:11.581Z,9.00
2023-07-05T06:28:40.562Z,10.70
2023-07-05T06:31:11.327Z,8.07
2023-07-05T06:33:40.371Z,10.40
2023-07-05T06:36:10.780Z,16.60
2023-07-05T06:38:39.630Z,10.02
2023-07-05T06:41:07.980Z,10.80
2023-07-05T06:43:36.347Z,11.20
2023-07-05T06:46:04.762Z,8.93
2023-07-05T06:48:33.139Z,11.95
2023-07-05T06:51:01.546Z,9.80
2023-07-05T06:56:02.746Z,9.57
2023-07-05T06:58:31.080Z,11.68
2023-07-05T07:01:02.752Z,10.35
2023-07-05T07:03:31.475Z,8.88
2023-07-05T07:06:00.740Z,9.75
2023-07-05T07:08:35.152Z,10.98
2023-07-05T07:11:04.481Z,8.98
2023-07-05T07:13:37.443Z,9.23
2023-07-05T07:16:08.544Z,11.43
2023-07-05T07:18:38.908Z,10.40
2023-07-05T07:21:08.458Z,10.25
2023-07-05T07:23:38.653Z,10.75
2023-07-05T07:26:08.916Z,10.05
2023-07-05T07:28:38.093Z,10.95
2023-07-05T07:31:13.567Z,11.48
2023-07-05T07:33:42.153Z,9.95
2023-07-05T07:36:11.672Z,8.27
2023-07-05T07:38:42.028Z,9.85
2023-07-05T07:41:18.049Z,10.63
2023-07-05T07:43:47.060Z,10.38
2023-07-05T07:46:16.787Z,8.98
2023-07-05T07:48:47.856Z,9.38
2023-07-05T07:51:31.427Z,9.40
2023-07-05T07:54:07.101Z,9.50
2023-07-05T07:56:35.559Z,9.15
2023-07-05T07:59:07.869Z,11.05
2023-07-05T08:01:39.086Z,9.85
2023-07-05T08:04:09.263Z,10.13
2023-07-05T08:06:40.278Z,8.85
2023-07-05T08:09:12.455Z,12.45
2023-07-05T08:11:41.122Z,9.50
2023-07-05T08:14:10.071Z,9.25
2023-07-05T08:16:38.492Z,11.23
2023-07-05T08:19:06.662Z,9.98
2023-07-05T08:21:34.969Z,7.43
2023-07-05T08:24:16.363Z,15.48
2023-07-05T08:26:53.106Z,11.50
2023-07-05T08:29:21.792Z,9.63
2023-07-05T08:31:51.234Z,9.40
2023-07-05T08:34:20.277Z,7.15
2023-07-05T08:36:48.658Z,8.70
2023-07-05T08:39:16.890Z,8.32
2023-07-05T08:42:04.574Z,10.80
2023-07-05T08:44:46.503Z,10.45
2023-07-05T08:47:23.841Z,7.28
2023-07-05T08:50:06.213Z,7.88
2023-07-05T08:52:43.863Z,5.80
2023-07-05T08:55:16.052Z,3.90
2023-07-05T08:57:49.230Z,1.75
2023-07-05T09:00:22.052Z,2.70
2023-07-05T09:02:50.201Z,3.72
2023-07-05T09:05:23.971Z,6.70
2023-07-05T09:08:02.574Z,3.38
2023-07-05T09:10:39.007Z,5.47
2023-07-05T09:13:17.419Z,3.50
2023-07-05T09:15:50.550Z,4.75
2023-07-05T09:18:28.883Z,5.47
2023-07-05T09:21:12.465Z,3.45
2023-07-05T09:23:44.857Z,4.05
2023-07-05T09:26:17.711Z,5.82
2023-07-05T09:28:52.217Z,9.35
2023-07-05T09:31:28.546Z,4.60
2023-07-05T09:34:09.789Z,3.08
2023-07-05T09:36:38.786Z,1.63
2023-07-05T09:39:18.333Z,3.70
2023-07-05T09:41:50.639Z,2.33
2023-07-05T09:44:21.513Z,4.50
2023-07-05T09:46:50.400Z,5.03
2023-07-05T09:49:19.647Z,4.65
2023-07-05T09:51:47.787Z,5.63
2023-07-05T09:54:22.715Z,5.25
2023-07-05T09:56:59.149Z,2.58
2023-07-05T09:59:28.592Z,8.20
2023-07-05T10:02:01.653Z,3.58
2023-07-05T10:04:30.696Z,2.97
2023-07-05T10:07:04.078Z,1.58
2023-07-05T10:09:32.255Z,5.05
2023-07-05T10:12:13.509Z,7.60
2023-07-05T10:14:42.957Z,5.57
2023-07-05T10:17:12.587Z,4.05
2023-07-05T10:19:50.154Z,4.18
2023-07-05T10:22:23.694Z,7.00
2023-07-05T10:24:54.428Z,5.22
2023-07-05T10:27:28.519Z,4.10
2023-07-05T10:30:03.865Z,4.80
2023-07-05T10:32:32.571Z,9.05
2023-07-05T10:35:01.692Z,4.03
2023-07-05T10:37:34.045Z,7.10
2023-07-05T10:40:09.633Z,9.95
2023-07-05T10:42:38.852Z,8.07
2023-07-05T10:45:14.647Z,4.43
2023-07-05T10:47:43.849Z,5.15
2023-07-05T10:50:16.124Z,9.15
2023-07-05T10:52:52.785Z,6.63
2023-07-05T10:55:24.239Z,13.10
2023-07-05T10:57:57.454Z,6.72
2023-07-05T11:00:38.905Z,6.35
2023-07-05T11:03:12.759Z,10.25
2023-07-05T11:05:44.764Z,2.90
2023-07-05T11:08:19.016Z,2.65
2023-07-05T11:10:48.566Z,7.50
2023-07-05T11:13:17.738Z,8.02
2023-07-05T11:15:48.474Z,10.02
2023-07-05T11:18:19.073Z,6.85
2023-07-05T11:20:52.856Z,2.92
2023-07-05T11:24:07.309Z,6.43
2023-07-05T11:26:45.993Z,6.40
2023-07-05T11:29:48.797Z,7.88
2023-07-05T11:32:18.319Z,6.50
2023-07-05T11:34:52.220Z,4.65
2023-07-05T11:37:43.310Z,4.38
2023-07-05T11:40:44.478Z,5.47
2023-07-05T11:43:24.065Z,6.18
2023-07-05T11:45:52.320Z,5.47
2023-07-05T11:48:40.968Z,9.27
2023-07-05T11:53:59.742Z,12.95
2023-07-05T11:56:31.442Z,9.13
2023-07-05T11:59:00.701Z,5.68
2023-07-05T12:01:32.181Z,6.88
2023-07-05T12:04:08.457Z,8.15
2023-07-05T12:06:41.443Z,7.53
2023-07-05T12:09:15.311Z,5.97
2023-07-05T12:11:44.137Z,7.85
2023-07-05T12:14:14.567Z,4.40
2023-07-05T12:16:43.494Z,8.95
2023-07-05T12:19:19.456Z,2.72
2023-07-05T12:21:56.302Z,6.45
2023-07-05T12:24:24.419Z,6.35
2023-07-05T12:26:54.982Z,7.88
2023-07-05T12:29:26.169Z,3.60
2023-07-05T12:32:06.487Z,5.35
2023-07-05T12:34:36.034Z,8.57
2023-07-05T12:37:04.121Z,6.50
2023-07-05T12:39:32.157Z,4.68
2023-07-05T12:42:03.860Z,7.72
2023-07-05T12:44:34.521Z,3.78
2023-07-05T12:47:17.178Z,3.45
2023-07-05T12:49:46.988Z,4.63
2023-07-05T12:52:20.934Z,4.43
2023-07-05T12:54:49.287Z,2.38
2023-07-05T12:57:23.560Z,7.40
2023-07-05T13:00:05.083Z,6.20
2023-07-05T13:02:36.824Z,5.10
2023-07-05T13:05:07.531Z,5.00
2023-07-05T13:07:38.585Z,3.88
2023-07-05T13:10:09.599Z,6.75
2023-07-05T13:12:49.981Z,2.17
2023-07-05T13:15:18.917Z,0.15
2023-07-05T13:17:47.266Z,0.00
2023-07-05T13:20:21.040Z,0.73
2023-07-05T13:22:58.522Z,0.00
2023-07-05T13:25:32.853Z,1.13
2023-07-05T13:28:03.664Z,0.45
2023-07-05T13:30:31.961Z,1.08
2023-07-05T13:33:02.174Z,1.77
2023-07-05T13:35:33.811Z,0.30
2023-07-05T13:38:03.568Z,0.10
2023-07-05T13:40:32.782Z,0.32
2023-07-05T13:43:04.049Z,2.72
2023-07-05T13:45:35.287Z,0.13
2023-07-05T13:48:03.532Z,0.10
2023-07-05T13:50:35.293Z,0.10
2023-07-05T13:53:05.022Z,8.93
2023-07-05T13:55:35.161Z,5.80
2023-07-05T13:58:07.953Z,7.75
2023-07-05T14:00:37.359Z,4.00
2023-07-05T14:03:06.031Z,7.47
2023-07-05T14:05:35.686Z,8.45
2023-07-05T14:08:07.695Z,0.20
2023-07-05T14:10:37.656Z,0.65
2023-07-05T14:13:05.751Z,0.20
2023-07-05T14:15:37.982Z,0.50
2023-07-05T14:18:06.740Z,3.10
2023-07-05T14:20:38.471Z,3.20
2023-07-05T14:23:12.575Z,0.25
2023-07-05T14:25:44.663Z,1.00
2023-07-05T14:28:13.731Z,1.08
2023-07-05T14:30:42.869Z,0.77
2023-07-05T14:33:11.590Z,0.00
2023-07-05T14:35:40.983Z,0.35
2023-07-05T14:38:10.053Z,0.10
2023-07-05T14:40:40.237Z,0.65
2023-07-05T14:43:08.309Z,3.33
2023-07-05T14:45:38.486Z,0.25
2023-07-05T14:48:07.155Z,0.55
2023-07-05T14:50:36.299Z,0.32
2023-07-05T14:53:09.738Z,0.38
2023-07-05T14:55:38.889Z,1.65
2023-07-05T14:58:12.797Z,0.32
2023-07-05T15:00:42.996Z,0.90
2023-07-05T15:03:15.722Z,2.72
2023-07-05T15:05:43.776Z,4.50
2023-07-05T15:08:13.192Z,0.00
2023-07-05T15:10:41.426Z,0.03
2023-07-05T15:13:12.584Z,2.38
2023-07-05T15:15:43.449Z,0.10
2023-07-05T15:18:11.573Z,0.77
2023-07-05T15:20:39.972Z,1.17
2023-07-05T15:23:08.258Z,0.20
2023-07-05T15:25:37.746Z,0.47
2023-07-05T15:28:06.409Z,0.73
2023-07-05T15:30:34.940Z,0.10
2023-07-05T15:33:03.011Z,0.85
2023-07-05T15:35:31.147Z,0.10
2023-07-05T15:37:59.215Z,0.80
2023-07-05T15:40:27.272Z,0.17
2023-07-05T15:42:56.665Z,0.00
2023-07-05T15:45:26.673Z,0.10
2023-07-05T15:47:55.474Z,0.20
2023-07-05T15:50:28.553Z,0.98
2023-07-05T15:52:57.459Z,1.00
2023-07-05T15:55:28.097Z,0.10
2023-07-05T15:58:01.195Z,0.30
2023-07-05T16:00:30.093Z,0.20
2023-07-05T16:03:00.437Z,1.27
2023-07-05T16:05:32.214Z,0.20
2023-07-05T16:08:02.447Z,0.20
2023-07-05T16:10:31.505Z,1.38
2023-07-05T16:13:02.396Z,0.90
2023-07-05T16:15:32.419Z,3.13
2023-07-05T16:18:00.936Z,0.65
2023-07-05T16:20:29.132Z,1.45
2023-07-05T16:22:57.253Z,0.10
2023-07-05T16:25:25.923Z,0.65
2023-07-05T16:27:54.099Z,2.45
2023-07-05T16:30:23.638Z,0.30
2023-07-05T16:32:51.711Z,0.57
2023-07-05T16:35:19.792Z,0.47
2023-07-05T16:37:47.888Z,0.25
2023-07-05T16:40:17.728Z,3.60
2023-07-05T16:42:46.897Z,0.35
2023-07-05T16:45:15.032Z,0.47
2023-07-05T16:47:45.173Z,0.20
2023-07-05T16:50:16.427Z,0.25
2023-07-05T16:52:44.815Z,0.13
2023-07-05T16:55:12.898Z,0.25
2023-07-05T16:57:41.372Z,4.68
2023-07-05T17:00:10.675Z,0.60
2023-07-05T17:02:41.369Z,11.82
2023-07-05T17:05:11.245Z,12.05
2023-07-05T17:07:39.317Z,11.10
2023-07-05T17:10:08.647Z,9.82
2023-07-05T17:12:36.877Z,12.13
2023-07-05T17:15:05.683Z,11.70
2023-07-05T17:17:34.636Z,10.23
2023-07-05T17:20:03.884Z,9.88
2023-07-05T17:22:37.864Z,10.30
2023-07-05T17:25:07.310Z,8.43
2023-07-05T17:27:35.369Z,7.65
2023-07-05T17:30:03.603Z,8.82
2023-07-05T17:32:31.693Z,10.70
2023-07-05T17:35:00.040Z,9.50
2023-07-05T17:37:28.818Z,12.20
2023-07-05T17:39:58.399Z,11.85
2023-07-05T17:42:26.497Z,7.93
2023-07-05T17:44:59.775Z,9.45
2023-07-05T17:47:28.044Z,6.78
2023-07-05T17:49:56.292Z,9.40
2023-07-05T17:52:24.912Z,5.65
2023-07-05T17:54:53.279Z,9.55
2023-07-05T17:57:22.814Z,9.55
2023-07-05T17:59:50.860Z,10.95
2023-07-05T18:02:18.974Z,12.60
2023-07-05T18:04:47.097Z,8.60
2023-07-05T18:07:15.253Z,9.00
2023-07-05T18:09:43.692Z,8.25
2023-07-05T18:12:12.170Z,6.05
2023-07-05T18:14:42.292Z,10.80
2023-07-05T18:17:10.535Z,10.40
2023-07-05T18:19:38.868Z,9.20
2023-07-05T18:22:07.517Z,8.70
2023-07-05T18:24:35.572Z,8.32
2023-07-05T18:27:03.647Z,9.07
2023-07-05T18:29:31.691Z,11.23
2023-07-05T18:32:01.149Z,8.43
2023-07-05T18:34:29.201Z,11.75
2023-07-05T18:36:57.660Z,8.02
2023-07-05T18:39:26.124Z,8.15
2023-07-05T18:41:54.167Z,10.00
2023-07-05T18:44:22.692Z,11.05
2023-07-05T18:46:50.951Z,9.73
2023-07-05T18:49:20.897Z,13.90
2023-07-05T18:51:50.345Z,11.77
2023-07-05T18:54:18.596Z,6.90
2023-07-05T18:56:46.659Z,10.82
2023-07-05T18:59:15.331Z,10.00
2023-07-05T19:01:44.897Z,11.00
2023-07-05T19:04:13.130Z,10.52
2023-07-05T19:06:42.608Z,9.57
2023-07-05T19:09:11.438Z,8.13
2023-07-05T19:11:39.909Z,9.40
2023-07-05T19:14:09.849Z,7.25
2023-07-05T19:16:38.379Z,9.27
2023-07-05T19:19:07.888Z,10.20
2023-07-05T19:21:36.141Z,8.73
2023-07-05T19:24:06.290Z,9.48
2023-07-05T19:26:34.426Z,5.72
2023-07-05T19:29:03.000Z,8.23
2023-07-05T19:31:31.116Z,8.52
2023-07-05T19:33:59.204Z,8.20
2023-07-05T19:36:28.181Z,8.20
2023-07-05T19:38:57.179Z,6.45
2023-07-05T19:41:26.754Z,9.75
2023-07-05T19:43:54.801Z,7.65
2023-07-05T19:46:27.472Z,9.10
2023-07-05T19:48:58.289Z,8.02
2023-07-05T19:51:26.534Z,10.02
2023-07-05T19:53:54.728Z,11.52
2023-07-05T19:56:23.314Z,6.40
2023-07-05T19:58:52.871Z,7.90
2023-07-05T20:01:21.004Z,7.07
2023-07-05T20:03:49.155Z,9.80
2023-07-05T20:06:17.941Z,8.88
2023-07-05T20:08:47.240Z,7.90
2023-07-05T20:11:19.220Z,9.27
2023-07-05T20:13:47.628Z,8.38
2023-07-05T20:16:19.873Z,8.85
2023-07-05T20:18:48.580Z,7.88
2023-07-05T20:21:17.931Z,6.93
2023-07-05T20:23:47.360Z,6.90
2023-07-05T20:26:17.605Z,6.25
2023-07-05T20:28:47.186Z,7.07
2023-07-05T20:31:19.069Z,8.95
2023-07-05T20:33:47.152Z,9.02
2023-07-05T20:36:16.780Z,8.48
2023-07-05T20:38:45.952Z,13.35
2023-07-05T20:41:14.564Z,11.05
2023-07-05T20:43:42.781Z,7.45
2023-07-05T20:46:11.152Z,10.70
2023-07-05T20:48:41.241Z,8.88
2023-07-05T20:51:11.981Z,9.43
2023-07-05T20:53:40.108Z,7.40
2023-07-05T20:56:08.345Z,10.00
2023-07-05T20:58:36.658Z,8.88
2023-07-05T21:01:06.494Z,9.50
2023-07-05T21:03:34.718Z,11.43
2023-07-05T21:06:04.116Z,10.57
2023-07-05T21:08:34.066Z,11.23
2023-07-05T21:11:05.797Z,11.02
2023-07-05T21:13:35.038Z,10.85
2023-07-05T21:16:05.727Z,7.32
2023-07-05T21:18:34.366Z,7.25
2023-07-05T21:21:04.053Z,7.70
2023-07-05T21:23:33.829Z,10.18
2023-07-05T21:26:04.817Z,9.07
2023-07-05T21:28:32.965Z,12.48
2023-07-05T21:31:02.899Z,10.60
2023-07-05T21:33:33.277Z,7.95
2023-07-05T21:36:03.100Z,10.25
2023-07-05T21:38:31.438Z,9.25
2023-07-05T21:41:01.514Z,7.47
2023-07-05T21:43:30.696Z,11.80
2023-07-05T21:45:59.235Z,9.65
2023-07-05T21:48:30.026Z,7.82
2023-07-05T21:50:59.337Z,11.90
2023-07-05T21:53:29.466Z,14.27
2023-07-05T21:55:59.585Z,12.15
2023-07-05T21:58:30.373Z,10.20
2023-07-05T22:00:59.847Z,11.63
2023-07-05T22:03:28.659Z,8.25
2023-07-05T22:05:59.848Z,8.85
2023-07-05T22:08:29.557Z,9.88
2023-07-05T22:10:57.697Z,11.18
2023-07-05T22:13:26.590Z,10.68
2023-07-05T22:15:55.542Z,10.32
2023-07-05T22:18:23.935Z,8.40
2023-07-05T22:20:51.973Z,12.27
2023-07-05T22:23:20.098Z,9.38
2023-07-05T22:25:49.526Z,13.95
2023-07-05T22:28:17.715Z,9.63
2023-07-05T22:30:48.598Z,12.10
2023-07-05T22:33:17.506Z,16.60
2023-07-05T22:35:46.127Z,8.40
2023-07-05T22:38:14.485Z,13.15
2023-07-05T22:40:42.581Z,14.32
2023-07-05T22:43:12.219Z,12.10
2023-07-05T22:45:40.388Z,12.35
2023-07-05T22:48:08.502Z,12.32
2023-07-05T22:50:36.957Z,11.40
2023-07-05T22:53:05.530Z,8.85
2023-07-05T22:55:34.216Z,11.70
2023-07-05T22:58:02.711Z,10.75
2023-07-05T23:00:32.210Z,13.50
2023-07-05T23:03:00.414Z,10.10
2023-07-05T23:05:29.894Z,11.27
2023-07-05T23:08:00.148Z,12.55
2023-07-05T23:10:28.251Z,8.77
2023-07-05T23:12:56.346Z,13.13
2023-07-05T23:15:24.620Z,10.80
2023-07-05T23:17:54.220Z,13.93
2023-07-05T23:20:24.326Z,13.48
2023-07-05T23:22:52.872Z,9.35
2023-07-05T23:25:21.048Z,9.98
2023-07-05T23:27:51.234Z,11.68
2023-07-05T23:30:19.784Z,10.93
2023-07-05T23:32:49.924Z,9.45
2023-07-05T23:35:19.689Z,9.90
2023-07-05T23:37:47.897Z,11.13
2023-07-05T23:40:16.049Z,11.02
2023-07-05T23:42:46.446Z,10.52
2023-07-05T23:45:15.105Z,8.43
2023-07-05T23:47:43.418Z,11.52
2023-07-05T23:50:12.800Z,9.85
2023-07-05T23:52:42.495Z,11.48
2023-07-05T23:55:11.457Z,9.73
2023-07-05T23:57:39.696Z,7.88
